sensor_id;sensor_type;location;lat;lon;timestamp;pressure;altitude;pressure_sealevel;temperature;humidity
55610;BME280;41486;52.502;13.486;2022-09-20T00:01:16;101036.22;;;9.78;100.00
55610;BME280;41486;52.502;13.486;2022-09-20T00:03:49;101035.50;;;9.76;100.00
55610;BME280;41486;52.502;13.486;2022-09-20T00:06:24;101035.72;;;9.86;100.00
55610;BME280;41486;52.502;13.486;2022-09-20T00:08:53;101034.75;;;9.74;100.00
55610;BME280;41486;52.502;13.486;2022-09-20T00:11:24;101047.06;;;9.73;100.00
55610;BME280;41486;52.502;13.486;2022-09-20T00:13:54;101036.31;;;9.76;100.00
55610;BME280;41486;52.502;13.486;2022-09-20T00:16:24;101044.50;;;9.72;100.00
55610;BME280;41486;52.502;13.486;2022-09-20T00:18:54;101045.25;;;9.74;100.00
55610;BME280;41486;52.502;13.486;2022-09-20T00:21:24;101044.09;;;9.65;100.00
55610;BME280;41486;52.502;13.486;2022-09-20T00:23:53;101038.84;;;9.65;100.00
55610;BME280;41486;52.502;13.486;2022-09-20T00:26:23;101046.72;;;9.65;100.00
55610;BME280;41486;52.502;13.486;2022-09-20T00:28:51;101046.16;;;9.60;100.00
55610;BME280;41486;52.502;13.486;2022-09-20T00:31:19;101047.97;;;9.59;100.00
55610;BME280;41486;52.502;13.486;2022-09-20T00:33:47;101044.69;;;9.56;100.00
55610;BME280;41486;52.502;13.486;2022-09-20T00:36:33;101045.34;;;9.59;100.00
55610;BME280;41486;52.502;13.486;2022-09-20T00:39:02;101046.28;;;9.58;100.00
55610;BME280;41486;52.502;13.486;2022-09-20T00:41:32;101049.94;;;9.56;100.00
55610;BME280;41486;52.502;13.486;2022-09-20T00:44:00;101049.19;;;9.54;100.00
55610;BME280;41486;52.502;13.486;2022-09-20T00:46:34;101051.53;;;9.58;100.00
55610;BME280;41486;52.502;13.486;2022-09-20T00:49:06;101055.00;;;9.59;100.00
55610;BME280;41486;52.502;13.486;2022-09-20T00:51:42;101051.94;;;9.52;100.00
55610;BME280;41486;52.502;13.486;2022-09-20T00:54:13;101055.22;;;9.56;100.00
55610;BME280;41486;52.502;13.486;2022-09-20T00:56:47;101049.84;;;9.57;100.00
55610;BME280;41486;52.502;13.486;2022-09-20T00:59:19;101052.59;;;9.56;100.00
55610;BME280;41486;52.502;13.486;2022-09-20T01:01:51;101051.19;;;9.50;100.00
55610;BME280;41486;52.502;13.486;2022-09-20T01:04:22;101056.03;;;9.56;100.00
55610;BME280;41486;52.502;13.486;2022-09-20T01:06:53;101052.88;;;9.51;100.00
55610;BME280;41486;52.502;13.486;2022-09-20T01:09:24;101060.00;;;9.49;100.00
55610;BME280;41486;52.502;13.486;2022-09-20T01:11:55;101050.44;;;9.48;100.00
55610;BME280;41486;52.502;13.486;2022-09-20T01:14:24;101053.72;;;9.52;100.00
55610;BME280;41486;52.502;13.486;2022-09-20T01:16:54;101055.47;;;9.38;100.00
55610;BME280;41486;52.502;13.486;2022-09-20T01:19:29;101057.22;;;9.38;100.00
55610;BME280;41486;52.502;13.486;2022-09-20T01:22:03;101047.41;;;9.41;100.00
55610;BME280;41486;52.502;13.486;2022-09-20T01:24:39;101045.69;;;9.40;100.00
55610;BME280;41486;52.502;13.486;2022-09-20T01:27:18;101047.13;;;9.31;100.00
55610;BME280;41486;52.502;13.486;2022-09-20T01:30:03;101048.41;;;9.39;100.00
55610;BME280;41486;52.502;13.486;2022-09-20T01:32:41;101044.41;;;9.33;100.00
55610;BME280;41486;52.502;13.486;2022-09-20T01:35:12;101045.91;;;9.37;100.00
55610;BME280;41486;52.502;13.486;2022-09-20T01:37:52;101049.69;;;9.33;100.00
55610;BME280;41486;52.502;13.486;2022-09-20T01:40:25;101051.25;;;9.36;100.00
55610;BME280;41486;52.502;13.486;2022-09-20T01:43:04;101048.03;;;9.45;100.00
55610;BME280;41486;52.502;13.486;2022-09-20T01:45:39;101054.81;;;9.35;100.00
55610;BME280;41486;52.502;13.486;2022-09-20T01:48:19;101047.69;;;9.37;100.00
55610;BME280;41486;52.502;13.486;2022-09-20T01:54:14;101062.75;;;9.47;100.00
55610;BME280;41486;52.502;13.486;2022-09-20T01:57:07;101061.84;;;9.34;100.00
55610;BME280;41486;52.502;13.486;2022-09-20T01:59:51;101061.41;;;9.27;100.00
55610;BME280;41486;52.502;13.486;2022-09-20T02:06:00;101070.13;;;9.28;100.00
55610;BME280;41486;52.502;13.486;2022-09-20T02:08:48;101066.66;;;9.27;100.00
55610;BME280;41486;52.502;13.486;2022-09-20T02:11:28;101073.13;;;9.22;100.00
55610;BME280;41486;52.502;13.486;2022-09-20T02:14:13;101064.63;;;9.18;100.00
55610;BME280;41486;52.502;13.486;2022-09-20T02:16:53;101070.00;;;9.29;100.00
55610;BME280;41486;52.502;13.486;2022-09-20T02:19:32;101074.84;;;9.23;100.00
55610;BME280;41486;52.502;13.486;2022-09-20T02:22:25;101074.59;;;9.13;100.00
55610;BME280;41486;52.502;13.486;2022-09-20T02:25:03;101077.63;;;9.20;100.00
55610;BME280;41486;52.502;13.486;2022-09-20T02:27:40;101077.22;;;9.13;100.00
55610;BME280;41486;52.502;13.486;2022-09-20T02:30:22;101073.97;;;9.22;100.00
55610;BME280;41486;52.502;13.486;2022-09-20T02:33:05;101077.09;;;9.14;100.00
55610;BME280;41486;52.502;13.486;2022-09-20T02:35:49;101078.88;;;9.14;100.00
55610;BME280;41486;52.502;13.486;2022-09-20T02:38:28;101080.56;;;9.15;100.00
55610;BME280;41486;52.502;13.486;2022-09-20T02:41:07;101084.94;;;9.29;100.00
55610;BME280;41486;52.502;13.486;2022-09-20T02:43:45;101081.19;;;9.19;100.00
55610;BME280;41486;52.502;13.486;2022-09-20T02:46:21;101096.50;;;9.26;100.00
55610;BME280;41486;52.502;13.486;2022-09-20T02:48:56;101088.31;;;9.31;100.00
55610;BME280;41486;52.502;13.486;2022-09-20T02:51:34;101091.69;;;9.33;100.00
55610;BME280;41486;52.502;13.486;2022-09-20T02:54:14;101085.97;;;9.26;100.00
55610;BME280;41486;52.502;13.486;2022-09-20T02:56:51;101090.84;;;9.32;100.00
55610;BME280;41486;52.502;13.486;2022-09-20T02:59:27;101089.72;;;9.37;100.00
55610;BME280;41486;52.502;13.486;2022-09-20T03:02:07;101090.00;;;9.32;100.00
55610;BME280;41486;52.502;13.486;2022-09-20T03:04:46;101097.13;;;9.30;100.00
55610;BME280;41486;52.502;13.486;2022-09-20T03:07:21;101091.28;;;9.39;100.00
55610;BME280;41486;52.502;13.486;2022-09-20T03:09:59;101089.91;;;9.34;100.00
55610;BME280;41486;52.502;13.486;2022-09-20T03:12:36;101089.91;;;9.34;100.00
55610;BME280;41486;52.502;13.486;2022-09-20T03:15:15;101095.97;;;9.34;100.00
55610;BME280;41486;52.502;13.486;2022-09-20T03:17:48;101101.22;;;9.34;100.00
55610;BME280;41486;52.502;13.486;2022-09-20T03:20:29;101099.47;;;9.35;100.00
55610;BME280;41486;52.502;13.486;2022-09-20T03:23:05;101103.69;;;9.37;100.00
55610;BME280;41486;52.502;13.486;2022-09-20T03:25:50;101105.84;;;9.30;100.00
55610;BME280;41486;52.502;13.486;2022-09-20T03:31:23;101113.53;;;9.34;100.00
55610;BME280;41486;52.502;13.486;2022-09-20T03:34:03;101112.88;;;9.30;100.00
55610;BME280;41486;52.502;13.486;2022-09-20T03:36:45;101114.94;;;9.39;100.00
55610;BME280;41486;52.502;13.486;2022-09-20T03:39:30;101109.38;;;9.44;100.00
55610;BME280;41486;52.502;13.486;2022-09-20T03:42:12;101118.69;;;9.35;100.00
55610;BME280;41486;52.502;13.486;2022-09-20T03:45:16;101122.16;;;9.36;100.00
55610;BME280;41486;52.502;13.486;2022-09-20T03:48:02;101116.63;;;9.40;100.00
55610;BME280;41486;52.502;13.486;2022-09-20T03:50:46;101118.09;;;9.44;100.00
55610;BME280;41486;52.502;13.486;2022-09-20T03:53:25;101108.53;;;9.43;100.00
55610;BME280;41486;52.502;13.486;2022-09-20T03:56:11;101116.69;;;9.39;100.00
55610;BME280;41486;52.502;13.486;2022-09-20T03:59:05;101107.81;;;9.41;100.00
55610;BME280;41486;52.502;13.486;2022-09-20T04:01:46;101110.88;;;9.48;100.00
55610;BME280;41486;52.502;13.486;2022-09-20T04:04:24;101115.00;;;9.52;100.00
55610;BME280;41486;52.502;13.486;2022-09-20T04:07:08;101114.78;;;9.55;100.00
55610;BME280;41486;52.502;13.486;2022-09-20T04:10:10;101117.00;;;9.61;100.00
55610;BME280;41486;52.502;13.486;2022-09-20T04:12:50;101129.50;;;9.58;100.00
55610;BME280;41486;52.502;13.486;2022-09-20T04:15:31;101127.31;;;9.65;100.00
55610;BME280;41486;52.502;13.486;2022-09-20T04:18:08;101131.28;;;9.57;100.00
55610;BME280;41486;52.502;13.486;2022-09-20T04:20:42;101122.38;;;9.60;100.00
55610;BME280;41486;52.502;13.486;2022-09-20T04:23:20;101130.41;;;9.71;100.00
55610;BME280;41486;52.502;13.486;2022-09-20T04:25:52;101127.31;;;9.65;100.00
55610;BME280;41486;52.502;13.486;2022-09-20T04:28:25;101131.94;;;9.61;100.00
55610;BME280;41486;52.502;13.486;2022-09-20T04:31:04;101126.16;;;9.56;100.00
55610;BME280;41486;52.502;13.486;2022-09-20T04:33:38;101132.69;;;9.63;100.00
55610;BME280;41486;52.502;13.486;2022-09-20T04:36:14;101130.69;;;9.67;100.00
55610;BME280;41486;52.502;13.486;2022-09-20T04:39:01;101129.84;;;9.66;100.00
55610;BME280;41486;52.502;13.486;2022-09-20T04:42:00;101137.09;;;9.62;100.00
55610;BME280;41486;52.502;13.486;2022-09-20T04:47:56;101129.50;;;9.58;100.00
55610;BME280;41486;52.502;13.486;2022-09-20T04:50:57;101130.91;;;9.63;100.00
55610;BME280;41486;52.502;13.486;2022-09-20T04:53:46;101135.31;;;9.63;100.00
55610;BME280;41486;52.502;13.486;2022-09-20T04:56:20;101134.47;;;9.62;100.00
55610;BME280;41486;52.502;13.486;2022-09-20T04:59:02;101132.78;;;9.61;100.00
55610;BME280;41486;52.502;13.486;2022-09-20T05:02:16;101139.28;;;9.56;100.00
55610;BME280;41486;52.502;13.486;2022-09-20T05:11:34;101144.97;;;9.62;100.00
55610;BME280;41486;52.502;13.486;2022-09-20T05:14:22;101156.34;;;9.63;100.00
55610;BME280;41486;52.502;13.486;2022-09-20T05:17:10;101153.31;;;9.69;100.00
55610;BME280;41486;52.502;13.486;2022-09-20T05:19:47;101164.97;;;9.65;100.00
55610;BME280;41486;52.502;13.486;2022-09-20T05:22:52;101170.88;;;9.69;100.00
55610;BME280;41486;52.502;13.486;2022-09-20T05:25:39;101171.22;;;9.77;100.00
55610;BME280;41486;52.502;13.486;2022-09-20T05:28:15;101167.09;;;9.73;100.00
55610;BME280;41486;52.502;13.486;2022-09-20T05:30:48;101168.50;;;9.78;100.00
55610;BME280;41486;52.502;13.486;2022-09-20T05:33:22;101181.41;;;9.82;100.00
55610;BME280;41486;52.502;13.486;2022-09-20T05:36:01;101181.56;;;9.93;100.00
55610;BME280;41486;52.502;13.486;2022-09-20T05:38:42;101185.91;;;9.94;100.00
55610;BME280;41486;52.502;13.486;2022-09-20T05:41:20;101189.81;;;10.01;100.00
55610;BME280;41486;52.502;13.486;2022-09-20T05:43:56;101185.13;;;9.92;100.00
55610;BME280;41486;52.502;13.486;2022-09-20T05:46:33;101192.84;;;9.95;100.00
55610;BME280;41486;52.502;13.486;2022-09-20T05:49:11;101195.19;;;10.00;100.00
55610;BME280;41486;52.502;13.486;2022-09-20T05:51:58;101196.56;;;10.05;100.00
55610;BME280;41486;52.502;13.486;2022-09-20T05:54:49;101198.69;;;10.13;100.00
55610;BME280;41486;52.502;13.486;2022-09-20T05:57:33;101201.53;;;10.23;100.00
55610;BME280;41486;52.502;13.486;2022-09-20T06:00:09;101203.44;;;10.21;100.00
55610;BME280;41486;52.502;13.486;2022-09-20T06:02:46;101209.13;;;10.27;100.00
55610;BME280;41486;52.502;13.486;2022-09-20T06:05:26;101208.47;;;10.24;100.00
55610;BME280;41486;52.502;13.486;2022-09-20T06:08:10;101215.59;;;10.36;100.00
55610;BME280;41486;52.502;13.486;2022-09-20T06:11:24;101219.72;;;10.40;100.00
55610;BME280;41486;52.502;13.486;2022-09-20T06:14:08;101225.19;;;10.37;100.00
55610;BME280;41486;52.502;13.486;2022-09-20T06:16:45;101221.22;;;10.45;100.00
55610;BME280;41486;52.502;13.486;2022-09-20T06:19:21;101225.91;;;10.39;100.00
55610;BME280;41486;52.502;13.486;2022-09-20T06:21:55;101226.34;;;10.46;100.00
55610;BME280;41486;52.502;13.486;2022-09-20T06:24:35;101236.59;;;10.51;100.00
55610;BME280;41486;52.502;13.486;2022-09-20T06:27:10;101244.69;;;10.61;100.00
55610;BME280;41486;52.502;13.486;2022-09-20T06:29:43;101226.81;;;10.53;100.00
55610;BME280;41486;52.502;13.486;2022-09-20T06:35:22;101234.41;;;10.57;100.00
55610;BME280;41486;52.502;13.486;2022-09-20T06:37:53;101233.13;;;10.63;100.00
55610;BME280;41486;52.502;13.486;2022-09-20T06:40:45;101227.22;;;10.60;100.00
55610;BME280;41486;52.502;13.486;2022-09-20T06:43:35;101234.63;;;10.67;100.00
55610;BME280;41486;52.502;13.486;2022-09-20T06:46:06;101236.72;;;10.75;100.00
55610;BME280;41486;52.502;13.486;2022-09-20T06:48:34;101236.72;;;10.75;100.00
55610;BME280;41486;52.502;13.486;2022-09-20T06:51:05;101240.19;;;10.76;100.00
55610;BME280;41486;52.502;13.486;2022-09-20T06:53:38;101243.47;;;10.79;100.00
55610;BME280;41486;52.502;13.486;2022-09-20T06:56:07;101244.91;;;10.70;100.00
55610;BME280;41486;52.502;13.486;2022-09-20T06:58:37;101250.81;;;10.74;100.00
55610;BME280;41486;52.502;13.486;2022-09-20T07:01:05;101246.72;;;10.83;100.00
55610;BME280;41486;52.502;13.486;2022-09-20T07:03:33;101250.31;;;10.82;100.00
55610;BME280;41486;52.502;13.486;2022-09-20T07:06:00;101254.31;;;10.87;100.00
55610;BME280;41486;52.502;13.486;2022-09-20T07:08:29;101256.97;;;11.00;100.00
55610;BME280;41486;52.502;13.486;2022-09-20T07:11:02;101252.63;;;10.99;100.00
55610;BME280;41486;52.502;13.486;2022-09-20T07:13:32;101256.53;;;10.94;100.00
55610;BME280;41486;52.502;13.486;2022-09-20T07:16:03;101262.22;;;10.87;100.00
55610;BME280;41486;52.502;13.486;2022-09-20T07:18:32;101264.41;;;10.81;100.00
55610;BME280;41486;52.502;13.486;2022-09-20T07:21:02;101264.22;;;10.84;100.00
55610;BME280;41486;52.502;13.486;2022-09-20T07:23:31;101263.16;;;10.73;100.00
55610;BME280;41486;52.502;13.486;2022-09-20T07:26:00;101271.97;;;10.72;100.00
55610;BME280;41486;52.502;13.486;2022-09-20T07:28:28;101269.56;;;10.69;100.00
55610;BME280;41486;52.502;13.486;2022-09-20T07:30:56;101276.81;;;10.66;100.00
55610;BME280;41486;52.502;13.486;2022-09-20T07:33:25;101271.16;;;10.72;100.00
55610;BME280;41486;52.502;13.486;2022-09-20T07:35:54;101274.50;;;10.74;100.00
55610;BME280;41486;52.502;13.486;2022-09-20T07:38:22;101284.63;;;10.67;100.00
55610;BME280;41486;52.502;13.486;2022-09-20T07:40:55;101282.06;;;10.66;100.00
55610;BME280;41486;52.502;13.486;2022-09-20T07:43:23;101279.88;;;10.72;100.00
55610;BME280;41486;52.502;13.486;2022-09-20T07:45:53;101285.78;;;10.76;100.00
55610;BME280;41486;52.502;13.486;2022-09-20T07:48:22;101285.38;;;10.69;100.00
55610;BME280;41486;52.502;13.486;2022-09-20T07:50:54;101285.59;;;10.79;100.00
55610;BME280;41486;52.502;13.486;2022-09-20T07:53:22;101286.31;;;10.94;100.00
55610;BME280;41486;52.502;13.486;2022-09-20T07:55:58;101287.81;;;10.98;100.00
55610;BME280;41486;52.502;13.486;2022-09-20T07:58:26;101297.00;;;11.05;100.00
55610;BME280;41486;52.502;13.486;2022-09-20T08:00:55;101296.38;;;11.15;100.00
55610;BME280;41486;52.502;13.486;2022-09-20T08:03:24;101290.56;;;11.23;100.00
55610;BME280;41486;52.502;13.486;2022-09-20T08:05:59;101296.25;;;11.29;100.00
55610;BME280;41486;52.502;13.486;2022-09-20T08:08:27;101296.75;;;11.34;100.00
55610;BME280;41486;52.502;13.486;2022-09-20T08:11:02;101295.06;;;11.46;100.00
55610;BME280;41486;52.502;13.486;2022-09-20T08:13:34;101292.97;;;11.51;100.00
55610;BME280;41486;52.502;13.486;2022-09-20T08:16:27;101303.72;;;11.61;100.00
55610;BME280;41486;52.502;13.486;2022-09-20T08:18:57;101299.25;;;11.62;100.00
55610;BME280;41486;52.502;13.486;2022-09-20T08:21:29;101308.09;;;11.74;100.00
55610;BME280;41486;52.502;13.486;2022-09-20T08:23:58;101309.94;;;11.60;100.00
55610;BME280;41486;52.502;13.486;2022-09-20T08:26:27;101306.47;;;11.60;100.00
55610;BME280;41486;52.502;13.486;2022-09-20T08:28:57;101310.84;;;11.72;100.00
55610;BME280;41486;52.502;13.486;2022-09-20T08:31:27;101310.63;;;11.88;100.00
55610;BME280;41486;52.502;13.486;2022-09-20T08:33:58;101316.00;;;11.87;100.00
55610;BME280;41486;52.502;13.486;2022-09-20T08:36:31;101316.09;;;11.85;99.72
55610;BME280;41486;52.502;13.486;2022-09-20T08:39:03;101320.56;;;11.97;100.00
55610;BME280;41486;52.502;13.486;2022-09-20T08:41:53;101319.56;;;11.98;100.00
55610;BME280;41486;52.502;13.486;2022-09-20T08:44:25;101322.78;;;12.15;99.61
55610;BME280;41486;52.502;13.486;2022-09-20T08:47:05;101318.25;;;12.17;99.55
55610;BME280;41486;52.502;13.486;2022-09-20T08:49:36;101328.97;;;12.27;98.61
55610;BME280;41486;52.502;13.486;2022-09-20T08:52:14;101329.66;;;12.42;98.07
55610;BME280;41486;52.502;13.486;2022-09-20T08:54:43;101325.78;;;12.35;98.03
55610;BME280;41486;52.502;13.486;2022-09-20T08:57:14;101332.09;;;12.45;98.50
55610;BME280;41486;52.502;13.486;2022-09-20T08:59:42;101328.25;;;12.49;97.51
55610;BME280;41486;52.502;13.486;2022-09-20T09:02:14;101331.56;;;12.64;97.10
55610;BME280;41486;52.502;13.486;2022-09-20T09:04:43;101334.44;;;12.61;96.25
55610;BME280;41486;52.502;13.486;2022-09-20T09:07:15;101343.56;;;12.57;96.08
55610;BME280;41486;52.502;13.486;2022-09-20T09:09:45;101330.44;;;12.55;95.67
55610;BME280;41486;52.502;13.486;2022-09-20T09:12:18;101330.91;;;12.73;96.45
55610;BME280;41486;52.502;13.486;2022-09-20T09:14:48;101333.97;;;12.67;94.93
55610;BME280;41486;52.502;13.486;2022-09-20T09:17:23;101333.63;;;12.72;95.19
55610;BME280;41486;52.502;13.486;2022-09-20T09:19:54;101334.50;;;12.84;95.01
55610;BME280;41486;52.502;13.486;2022-09-20T09:22:28;101335.28;;;12.97;94.35
55610;BME280;41486;52.502;13.486;2022-09-20T09:25:09;101331.94;;;13.06;91.38
55610;BME280;41486;52.502;13.486;2022-09-20T09:27:49;101326.69;;;13.18;89.85
55610;BME280;41486;52.502;13.486;2022-09-20T09:30:19;101329.56;;;13.26;89.87
55610;BME280;41486;52.502;13.486;2022-09-20T09:32:48;101328.50;;;13.17;90.92
55610;BME280;41486;52.502;13.486;2022-09-20T09:35:24;101333.06;;;13.38;90.16
55610;BME280;41486;52.502;13.486;2022-09-20T09:37:55;101332.69;;;13.31;89.00
55610;BME280;41486;52.502;13.486;2022-09-20T09:40:25;101332.34;;;13.36;87.89
55610;BME280;41486;52.502;13.486;2022-09-20T09:42:54;101335.03;;;13.47;87.81
55610;BME280;41486;52.502;13.486;2022-09-20T09:45:29;101329.03;;;13.68;86.94
55610;BME280;41486;52.502;13.486;2022-09-20T09:48:02;101330.22;;;13.64;86.81
55610;BME280;41486;52.502;13.486;2022-09-20T09:50:43;101324.94;;;13.64;85.98
55610;BME280;41486;52.502;13.486;2022-09-20T09:53:14;101333.38;;;13.57;84.41
55610;BME280;41486;52.502;13.486;2022-09-20T09:56:03;101327.81;;;13.61;82.51
55610;BME280;41486;52.502;13.486;2022-09-20T09:58:50;101325.66;;;13.77;82.14
55610;BME280;41486;52.502;13.486;2022-09-20T10:01:29;101319.41;;;13.67;79.79
55610;BME280;41486;52.502;13.486;2022-09-20T10:04:07;101318.94;;;13.73;82.18
55610;BME280;41486;52.502;13.486;2022-09-20T10:06:41;101324.91;;;13.75;81.89
55610;BME280;41486;52.502;13.486;2022-09-20T10:09:25;101316.41;;;13.83;82.71
55610;BME280;41486;52.502;13.486;2022-09-20T10:12:08;101325.53;;;13.79;82.37
55610;BME280;41486;52.502;13.486;2022-09-20T10:14:51;101322.16;;;13.88;82.84
55610;BME280;41486;52.502;13.486;2022-09-20T10:17:36;101315.25;;;14.19;83.28
55610;BME280;41486;52.502;13.486;2022-09-20T10:20:23;101320.91;;;14.03;80.37
55610;BME280;41486;52.502;13.486;2022-09-20T10:23:05;101321.03;;;14.13;80.95
55610;BME280;41486;52.502;13.486;2022-09-20T10:26:03;101323.72;;;14.34;78.15
55610;BME280;41486;52.502;13.486;2022-09-20T10:28:44;101316.69;;;14.56;76.82
55610;BME280;41486;52.502;13.486;2022-09-20T10:31:32;101314.03;;;14.56;75.31
55610;BME280;41486;52.502;13.486;2022-09-20T10:34:21;101316.03;;;14.64;76.03
55610;BME280;41486;52.502;13.486;2022-09-20T10:36:54;101327.69;;;14.40;77.63
55610;BME280;41486;52.502;13.486;2022-09-20T10:39:27;101335.75;;;14.39;78.67
55610;BME280;41486;52.502;13.486;2022-09-20T10:42:05;101330.97;;;14.32;77.83
55610;BME280;41486;52.502;13.486;2022-09-20T10:44:56;101332.31;;;14.27;79.60
55610;BME280;41486;52.502;13.486;2022-09-20T10:47:33;101337.03;;;14.12;80.98
55610;BME280;41486;52.502;13.486;2022-09-20T10:50:07;101341.63;;;13.87;81.77
55610;BME280;41486;52.502;13.486;2022-09-20T10:52:48;101335.88;;;13.70;84.83
55610;BME280;41486;52.502;13.486;2022-09-20T10:55:27;101343.47;;;13.64;87.87
55610;BME280;41486;52.502;13.486;2022-09-20T10:58:33;101357.25;;;13.56;91.95
55610;BME280;41486;52.502;13.486;2022-09-20T11:01:09;101362.97;;;13.27;93.00
55610;BME280;41486;52.502;13.486;2022-09-20T11:03:59;101369.78;;;13.18;95.49
55610;BME280;41486;52.502;13.486;2022-09-20T11:06:43;101366.66;;;13.02;99.76
55610;BME280;41486;52.502;13.486;2022-09-20T11:09:19;101361.69;;;12.61;100.00
55610;BME280;41486;52.502;13.486;2022-09-20T11:11:51;101363.88;;;12.43;100.00
55610;BME280;41486;52.502;13.486;2022-09-20T11:14:28;101389.09;;;12.48;100.00
55610;BME280;41486;52.502;13.486;2022-09-20T11:17:05;101406.66;;;12.36;100.00
55610;BME280;41486;52.502;13.486;2022-09-20T11:19:45;101428.03;;;11.55;98.00
55610;BME280;41486;52.502;13.486;2022-09-20T11:22:18;101405.38;;;10.99;100.00
55610;BME280;41486;52.502;13.486;2022-09-20T11:24:51;101423.81;;;10.99;100.00
55610;BME280;41486;52.502;13.486;2022-09-20T11:27:25;101408.81;;;10.60;100.00
55610;BME280;41486;52.502;13.486;2022-09-20T11:29:59;101402.44;;;10.64;100.00
55610;BME280;41486;52.502;13.486;2022-09-20T11:32:31;101398.09;;;10.63;100.00
55610;BME280;41486;52.502;13.486;2022-09-20T11:35:05;101401.69;;;10.62;100.00
55610;BME280;41486;52.502;13.486;2022-09-20T11:37:44;101396.31;;;10.63;100.00
55610;BME280;41486;52.502;13.486;2022-09-20T11:40:18;101397.63;;;10.56;100.00
55610;BME280;41486;52.502;13.486;2022-09-20T11:42:48;101397.88;;;10.66;100.00
55610;BME280;41486;52.502;13.486;2022-09-20T11:45:20;101401.91;;;10.71;100.00
55610;BME280;41486;52.502;13.486;2022-09-20T11:47:56;101405.28;;;10.73;100.00
55610;BME280;41486;52.502;13.486;2022-09-20T11:53:58;101398.38;;;10.85;100.00
55610;BME280;41486;52.502;13.486;2022-09-20T11:56:32;101400.53;;;10.93;100.00
55610;BME280;41486;52.502;13.486;2022-09-20T11:59:02;101406.94;;;10.89;100.00
55610;BME280;41486;52.502;13.486;2022-09-20T12:01:35;101410.09;;;10.94;100.00
55610;BME280;41486;52.502;13.486;2022-09-20T12:04:09;101403.41;;;11.03;100.00
55610;BME280;41486;52.502;13.486;2022-09-20T12:07:01;101405.72;;;11.08;100.00
55610;BME280;41486;52.502;13.486;2022-09-20T12:09:38;101410.50;;;11.28;100.00
55610;BME280;41486;52.502;13.486;2022-09-20T12:12:14;101406.22;;;12.42;100.00
55610;BME280;41486;52.502;13.486;2022-09-20T12:14:53;101412.75;;;16.37;83.65
55610;BME280;41486;52.502;13.486;2022-09-20T12:18:01;101406.66;;;15.54;81.89
55610;BME280;41486;52.502;13.486;2022-09-20T12:21:01;101407.31;;;16.88;77.36
55610;BME280;41486;52.502;13.486;2022-09-20T12:23:59;101422.53;;;18.30;66.94
55610;BME280;41486;52.502;13.486;2022-09-20T12:26:40;101409.19;;;19.65;61.31
55610;BME280;41486;52.502;13.486;2022-09-20T12:32:42;101413.09;;;20.05;62.21
55610;BME280;41486;52.502;13.486;2022-09-20T12:38:38;101416.84;;;20.37;59.21
55610;BME280;41486;52.502;13.486;2022-09-20T12:41:14;101409.03;;;19.40;64.39
55610;BME280;41486;52.502;13.486;2022-09-20T12:44:03;101414.56;;;20.59;59.59
55610;BME280;41486;52.502;13.486;2022-09-20T12:46:39;101417.75;;;22.01;57.88
55610;BME280;41486;52.502;13.486;2022-09-20T12:49:33;101415.41;;;21.58;56.64
55610;BME280;41486;52.502;13.486;2022-09-20T12:52:22;101412.78;;;16.77;72.45
55610;BME280;41486;52.502;13.486;2022-09-20T12:55:11;101413.53;;;18.77;63.37
55610;BME280;41486;52.502;13.486;2022-09-20T12:57:39;101419.66;;;19.84;59.94
55610;BME280;41486;52.502;13.486;2022-09-20T13:00:28;101417.34;;;18.74;60.67
55610;BME280;41486;52.502;13.486;2022-09-20T13:02:59;101414.19;;;16.81;67.46
55610;BME280;41486;52.502;13.486;2022-09-20T13:05:33;101422.56;;;15.54;71.10
55610;BME280;41486;52.502;13.486;2022-09-20T13:08:15;101412.63;;;14.48;77.70
55610;BME280;41486;52.502;13.486;2022-09-20T13:10:59;101439.84;;;14.39;82.00
55610;BME280;41486;52.502;13.486;2022-09-20T13:13:34;101425.09;;;14.25;78.68
55610;BME280;41486;52.502;13.486;2022-09-20T13:16:16;101438.78;;;14.30;79.55
55610;BME280;41486;52.502;13.486;2022-09-20T13:18:45;101439.97;;;14.49;81.40
55610;BME280;41486;52.502;13.486;2022-09-20T13:21:14;101449.97;;;14.23;77.52
55610;BME280;41486;52.502;13.486;2022-09-20T13:23:47;101458.03;;;13.76;77.72
55610;BME280;41486;52.502;13.486;2022-09-20T13:26:22;101450.47;;;14.16;76.83
55610;BME280;41486;52.502;13.486;2022-09-20T13:28:54;101455.50;;;14.42;76.87
55610;BME280;41486;52.502;13.486;2022-09-20T13:31:31;101448.59;;;14.62;74.54
55610;BME280;41486;52.502;13.486;2022-09-20T13:34:18;101448.03;;;14.47;72.48
55610;BME280;41486;52.502;13.486;2022-09-20T13:36:52;101441.53;;;14.40;75.04
55610;BME280;41486;52.502;13.486;2022-09-20T13:39:31;101450.34;;;14.29;73.96
55610;BME280;41486;52.502;13.486;2022-09-20T13:42:07;101448.53;;;14.07;74.98
55610;BME280;41486;52.502;13.486;2022-09-20T13:44:48;101449.16;;;14.22;73.88
55610;BME280;41486;52.502;13.486;2022-09-20T13:47:24;101457.78;;;14.35;75.85
55610;BME280;41486;52.502;13.486;2022-09-20T13:49:59;101448.56;;;14.30;74.41
55610;BME280;41486;52.502;13.486;2022-09-20T13:52:31;101452.25;;;14.50;74.13
55610;BME280;41486;52.502;13.486;2022-09-20T13:55:19;101451.97;;;14.76;73.22
55610;BME280;41486;52.502;13.486;2022-09-20T13:57:52;101457.56;;;14.27;74.57
55610;BME280;41486;52.502;13.486;2022-09-20T14:00:24;101459.97;;;14.19;75.28
55610;BME280;41486;52.502;13.486;2022-09-20T14:02:54;101457.44;;;13.95;75.87